sensor_id;sensor_type;location;lat;lon;timestamp;P1;durP1;ratioP1;P2;durP2;ratioP2
10383;SDS011;5238;43.508;4.980;2022-12-08T00:02:24;21.63;;;11.63;;
10383;SDS011;5238;43.508;4.980;2022-12-08T00:04:58;25.80;;;13.35;;
10383;SDS011;5238;43.508;4.980;2022-12-08T00:07:45;17.52;;;10.65;;
10383;SDS011;5238;43.508;4.980;2022-12-08T00:10:37;19.95;;;10.75;;
10383;SDS011;5238;43.508;4.980;2022-12-08T00:13:06;20.02;;;10.70;;
10383;SDS011;5238;43.508;4.980;2022-12-08T00:16:08;19.13;;;10.73;;
10383;SDS011;5238;43.508;4.980;2022-12-08T00:18:36;15.32;;;9.35;;
10383;SDS011;5238;43.508;4.980;2022-12-08T00:21:05;17.45;;;10.80;;
10383;SDS011;5238;43.508;4.980;2022-12-08T00:23:38;17.80;;;10.35;;
10383;SDS011;5238;43.508;4.980;2022-12-08T00:26:19;16.75;;;10.93;;
10383;SDS011;5238;43.508;4.980;2022-12-08T00:28:48;22.08;;;11.35;;
10383;SDS011;5238;43.508;4.980;2022-12-08T00:31:19;18.52;;;10.30;;
10383;SDS011;5238;43.508;4.980;2022-12-08T00:33:56;18.90;;;10.00;;
10383;SDS011;5238;43.508;4.980;2022-12-08T00:36:28;17.40;;;9.98;;
10383;SDS011;5238;43.508;4.980;2022-12-08T00:39:13;17.10;;;9.68;;
10383;SDS011;5238;43.508;4.980;2022-12-08T00:41:42;16.25;;;10.13;;
10383;SDS011;5238;43.508;4.980;2022-12-08T00:44:33;15.57;;;9.55;;
10383;SDS011;5238;43.508;4.980;2022-12-08T00:47:15;18.15;;;10.73;;
10383;SDS011;5238;43.508;4.980;2022-12-08T00:49:58;17.63;;;9.82;;
10383;SDS011;5238;43.508;4.980;2022-12-08T00:52:33;16.73;;;10.38;;
10383;SDS011;5238;43.508;4.980;2022-12-08T00:55:07;18.67;;;10.73;;
10383;SDS011;5238;43.508;4.980;2022-12-08T00:57:49;19.98;;;10.50;;
10383;SDS011;5238;43.508;4.980;2022-12-08T01:00:19;17.50;;;10.07;;
10383;SDS011;5238;43.508;4.980;2022-12-08T01:02:47;17.63;;;10.50;;
10383;SDS011;5238;43.508;4.980;2022-12-08T01:05:24;24.83;;;12.95;;
10383;SDS011;5238;43.508;4.980;2022-12-08T01:08:08;22.38;;;11.02;;
10383;SDS011;5238;43.508;4.980;2022-12-08T01:10:45;18.40;;;10.63;;
10383;SDS011;5238;43.508;4.980;2022-12-08T01:13:30;19.08;;;11.88;;
10383;SDS011;5238;43.508;4.980;2022-12-08T01:15:59;20.27;;;10.85;;
10383;SDS011;5238;43.508;4.980;2022-12-08T01:18:26;20.20;;;11.32;;
10383;SDS011;5238;43.508;4.980;2022-12-08T01:21:00;18.20;;;10.07;;
10383;SDS011;5238;43.508;4.980;2022-12-08T01:23:42;15.90;;;10.10;;
10383;SDS011;5238;43.508;4.980;2022-12-08T01:26:19;18.23;;;11.10;;
10383;SDS011;5238;43.508;4.980;2022-12-08T01:28:48;20.42;;;11.25;;
10383;SDS011;5238;43.508;4.980;2022-12-08T01:31:24;16.27;;;10.85;;
10383;SDS011;5238;43.508;4.980;2022-12-08T01:33:55;16.98;;;10.77;;
10383;SDS011;5238;43.508;4.980;2022-12-08T01:36:36;17.75;;;10.98;;
10383;SDS011;5238;43.508;4.980;2022-12-08T01:39:10;18.02;;;10.93;;
10383;SDS011;5238;43.508;4.980;2022-12-08T01:41:49;20.88;;;12.38;;
10383;SDS011;5238;43.508;4.980;2022-12-08T01:47:40;19.63;;;10.77;;
10383;SDS011;5238;43.508;4.980;2022-12-08T01:50:20;19.02;;;10.77;;
10383;SDS011;5238;43.508;4.980;2022-12-08T01:52:51;18.88;;;10.68;;
10383;SDS011;5238;43.508;4.980;2022-12-08T01:55:27;15.57;;;9.85;;
10383;SDS011;5238;43.508;4.980;2022-12-08T01:58:02;19.35;;;10.55;;
10383;SDS011;5238;43.508;4.980;2022-12-08T02:00:58;19.75;;;10.35;;
10383;SDS011;5238;43.508;4.980;2022-12-08T02:03:34;15.98;;;9.80;;
10383;SDS011;5238;43.508;4.980;2022-12-08T02:06:14;17.90;;;10.55;;
10383;SDS011;5238;43.508;4.980;2022-12-08T02:08:43;18.60;;;9.70;;
10383;SDS011;5238;43.508;4.980;2022-12-08T02:11:19;18.05;;;11.02;;
10383;SDS011;5238;43.508;4.980;2022-12-08T02:14:03;20.63;;;9.38;;
10383;SDS011;5238;43.508;4.980;2022-12-08T02:16:37;16.50;;;10.25;;
10383;SDS011;5238;43.508;4.980;2022-12-08T02:19:31;17.83;;;9.68;;
10383;SDS011;5238;43.508;4.980;2022-12-08T02:22:24;16.40;;;9.95;;
10383;SDS011;5238;43.508;4.980;2022-12-08T02:25:17;17.23;;;9.48;;
10383;SDS011;5238;43.508;4.980;2022-12-08T02:27:55;15.75;;;9.63;;
10383;SDS011;5238;43.508;4.980;2022-12-08T02:30:43;16.70;;;9.85;;
10383;SDS011;5238;43.508;4.980;2022-12-08T02:36:29;16.35;;;9.55;;
10383;SDS011;5238;43.508;4.980;2022-12-08T02:39:10;16.85;;;9.90;;
10383;SDS011;5238;43.508;4.980;2022-12-08T02:41:51;15.70;;;9.65;;
10383;SDS011;5238;43.508;4.980;2022-12-08T02:44:30;14.48;;;10.00;;
10383;SDS011;5238;43.508;4.980;2022-12-08T02:47:07;16.60;;;9.88;;
10383;SDS011;5238;43.508;4.980;2022-12-08T02:49:38;16.63;;;8.95;;
10383;SDS011;5238;43.508;4.980;2022-12-08T02:55:24;16.77;;;9.88;;
10383;SDS011;5238;43.508;4.980;2022-12-08T02:58:30;17.40;;;10.23;;
10383;SDS011;5238;43.508;4.980;2022-12-08T03:01:42;15.50;;;8.75;;
10383;SDS011;5238;43.508;4.980;2022-12-08T03:04:26;13.80;;;8.18;;
10383;SDS011;5238;43.508;4.980;2022-12-08T03:07:11;14.70;;;8.63;;
10383;SDS011;5238;43.508;4.980;2022-12-08T03:09:48;17.75;;;9.45;;
10383;SDS011;5238;43.508;4.980;2022-12-08T03:12:28;17.23;;;9.77;;
10383;SDS011;5238;43.508;4.980;2022-12-08T03:15:02;16.02;;;9.13;;
10383;SDS011;5238;43.508;4.980;2022-12-08T03:17:33;14.35;;;8.48;;
10383;SDS011;5238;43.508;4.980;2022-12-08T03:20:15;16.15;;;9.18;;
10383;SDS011;5238;43.508;4.980;2022-12-08T03:22:56;19.02;;;8.68;;
10383;SDS011;5238;43.508;4.980;2022-12-08T03:25:31;14.43;;;8.45;;
10383;SDS011;5238;43.508;4.980;2022-12-08T03:28:04;12.88;;;7.45;;
10383;SDS011;5238;43.508;4.980;2022-12-08T03:30:33;14.85;;;8.75;;
10383;SDS011;5238;43.508;4.980;2022-12-08T03:33:25;14.70;;;8.27;;
10383;SDS011;5238;43.508;4.980;2022-12-08T03:36:03;14.18;;;8.57;;
10383;SDS011;5238;43.508;4.980;2022-12-08T03:38:37;14.95;;;8.70;;
10383;SDS011;5238;43.508;4.980;2022-12-08T03:41:09;13.93;;;7.93;;
10383;SDS011;5238;43.508;4.980;2022-12-08T03:43:44;14.57;;;8.75;;
10383;SDS011;5238;43.508;4.980;2022-12-08T03:46:21;16.65;;;9.05;;
10383;SDS011;5238;43.508;4.980;2022-12-08T03:48:50;15.63;;;9.40;;
10383;SDS011;5238;43.508;4.980;2022-12-08T03:51:20;16.98;;;8.90;;
10383;SDS011;5238;43.508;4.980;2022-12-08T03:53:51;14.68;;;9.35;;
10383;SDS011;5238;43.508;4.980;2022-12-08T03:56:25;15.02;;;9.38;;
10383;SDS011;5238;43.508;4.980;2022-12-08T03:59:02;14.73;;;9.13;;
10383;SDS011;5238;43.508;4.980;2022-12-08T04:01:32;13.75;;;8.88;;
10383;SDS011;5238;43.508;4.980;2022-12-08T04:04:09;14.13;;;8.60;;
10383;SDS011;5238;43.508;4.980;2022-12-08T04:06:38;14.13;;;8.80;;
10383;SDS011;5238;43.508;4.980;2022-12-08T04:09:06;14.88;;;8.82;;
10383;SDS011;5238;43.508;4.980;2022-12-08T04:12:18;10.75;;;7.43;;
10383;SDS011;5238;43.508;4.980;2022-12-08T04:14:49;13.63;;;8.80;;
10383;SDS011;5238;43.508;4.980;2022-12-08T04:17:17;15.88;;;8.63;;
10383;SDS011;5238;43.508;4.980;2022-12-08T04:19:46;13.55;;;8.40;;
10383;SDS011;5238;43.508;4.980;2022-12-08T04:22:15;15.20;;;8.82;;
10383;SDS011;5238;43.508;4.980;2022-12-08T04:24:44;15.20;;;8.95;;
10383;SDS011;5238;43.508;4.980;2022-12-08T04:27:15;14.55;;;9.00;;
10383;SDS011;5238;43.508;4.980;2022-12-08T04:29:47;13.82;;;8.25;;
10383;SDS011;5238;43.508;4.980;2022-12-08T04:32:17;14.32;;;9.30;;
10383;SDS011;5238;43.508;4.980;2022-12-08T04:34:46;14.43;;;8.93;;
10383;SDS011;5238;43.508;4.980;2022-12-08T04:37:23;13.68;;;9.13;;
10383;SDS011;5238;43.508;4.980;2022-12-08T04:39:55;14.27;;;9.75;;
10383;SDS011;5238;43.508;4.980;2022-12-08T04:42:29;15.07;;;8.90;;
10383;SDS011;5238;43.508;4.980;2022-12-08T04:44:57;15.35;;;9.13;;
10383;SDS011;5238;43.508;4.980;2022-12-08T04:47:24;17.17;;;9.75;;
10383;SDS011;5238;43.508;4.980;2022-12-08T04:49:55;13.25;;;8.55;;
10383;SDS011;5238;43.508;4.980;2022-12-08T04:52:24;12.02;;;8.00;;
10383;SDS011;5238;43.508;4.980;2022-12-08T04:54:52;13.27;;;8.38;;
10383;SDS011;5238;43.508;4.980;2022-12-08T04:57:23;15.25;;;8.65;;
10383;SDS011;5238;43.508;4.980;2022-12-08T05:00:11;15.13;;;9.30;;
10383;SDS011;5238;43.508;4.980;2022-12-08T05:03:12;12.07;;;7.88;;
10383;SDS011;5238;43.508;4.980;2022-12-08T05:05:49;13.57;;;8.07;;
10383;SDS011;5238;43.508;4.980;2022-12-08T05:08:18;14.27;;;8.85;;
10383;SDS011;5238;43.508;4.980;2022-12-08T05:10:50;14.82;;;8.38;;
10383;SDS011;5238;43.508;4.980;2022-12-08T05:13:20;13.38;;;8.68;;
10383;SDS011;5238;43.508;4.980;2022-12-08T05:15:48;13.18;;;7.68;;
10383;SDS011;5238;43.508;4.980;2022-12-08T05:18:20;12.85;;;8.20;;
10383;SDS011;5238;43.508;4.980;2022-12-08T05:20:52;13.18;;;8.48;;
10383;SDS011;5238;43.508;4.980;2022-12-08T05:26:05;11.30;;;8.02;;
10383;SDS011;5238;43.508;4.980;2022-12-08T05:28:37;12.27;;;7.85;;
10383;SDS011;5238;43.508;4.980;2022-12-08T05:31:05;11.40;;;7.90;;
10383;SDS011;5238;43.508;4.980;2022-12-08T05:33:47;11.73;;;8.18;;
10383;SDS011;5238;43.508;4.980;2022-12-08T05:36:18;14.25;;;8.05;;
10383;SDS011;5238;43.508;4.980;2022-12-08T05:38:51;14.60;;;8.93;;
10383;SDS011;5238;43.508;4.980;2022-12-08T05:41:23;13.63;;;7.97;;
10383;SDS011;5238;43.508;4.980;2022-12-08T05:43:51;10.15;;;7.65;;
10383;SDS011;5238;43.508;4.980;2022-12-08T05:46:20;10.45;;;7.25;;
10383;SDS011;5238;43.508;4.980;2022-12-08T05:48:48;9.93;;;7.47;;
10383;SDS011;5238;43.508;4.980;2022-12-08T05:51:29;9.57;;;6.85;;
10383;SDS011;5238;43.508;4.980;2022-12-08T05:54:02;28.13;;;6.85;;
10383;SDS011;5238;43.508;4.980;2022-12-08T05:56:51;9.93;;;6.60;;
10383;SDS011;5238;43.508;4.980;2022-12-08T05:59:30;11.23;;;5.82;;
10383;SDS011;5238;43.508;4.980;2022-12-08T06:02:06;11.05;;;6.10;;
10383;SDS011;5238;43.508;4.980;2022-12-08T06:04:34;9.32;;;6.43;;
10383;SDS011;5238;43.508;4.980;2022-12-08T06:07:15;11.35;;;6.78;;
10383;SDS011;5238;43.508;4.980;2022-12-08T06:09:59;9.80;;;6.10;;
10383;SDS011;5238;43.508;4.980;2022-12-08T06:12:34;9.63;;;6.22;;
10383;SDS011;5238;43.508;4.980;2022-12-08T06:15:04;11.18;;;6.85;;
10383;SDS011;5238;43.508;4.980;2022-12-08T06:17:34;10.05;;;6.13;;
10383;SDS011;5238;43.508;4.980;2022-12-08T06:20:06;10.35;;;6.05;;
10383;SDS011;5238;43.508;4.980;2022-12-08T06:22:35;10.45;;;7.03;;
10383;SDS011;5238;43.508;4.980;2022-12-08T06:25:25;13.13;;;8.63;;
10383;SDS011;5238;43.508;4.980;2022-12-08T06:27:53;11.48;;;8.50;;
10383;SDS011;5238;43.508;4.980;2022-12-08T06:30:22;12.77;;;9.52;;
10383;SDS011;5238;43.508;4.980;2022-12-08T06:32:54;13.18;;;9.27;;
10383;SDS011;5238;43.508;4.980;2022-12-08T06:35:23;17.00;;;12.02;;
10383;SDS011;5238;43.508;4.980;2022-12-08T06:37:51;20.33;;;12.70;;
10383;SDS011;5238;43.508;4.980;2022-12-08T06:40:20;25.38;;;15.43;;
10383;SDS011;5238;43.508;4.980;2022-12-08T06:42:52;18.15;;;12.25;;
10383;SDS011;5238;43.508;4.980;2022-12-08T06:45:21;20.20;;;11.38;;
10383;SDS011;5238;43.508;4.980;2022-12-08T06:47:48;18.48;;;11.18;;
10383;SDS011;5238;43.508;4.980;2022-12-08T06:50:16;16.77;;;11.13;;
10383;SDS011;5238;43.508;4.980;2022-12-08T06:52:44;18.67;;;10.52;;
10383;SDS011;5238;43.508;4.980;2022-12-08T06:55:12;16.13;;;10.25;;
10383;SDS011;5238;43.508;4.980;2022-12-08T06:57:47;21.33;;;12.70;;
10383;SDS011;5238;43.508;4.980;2022-12-08T07:00:18;19.85;;;13.13;;
10383;SDS011;5238;43.508;4.980;2022-12-08T07:02:48;19.80;;;13.05;;
10383;SDS011;5238;43.508;4.980;2022-12-08T07:05:17;17.23;;;11.73;;
10383;SDS011;5238;43.508;4.980;2022-12-08T07:07:46;19.00;;;12.77;;
10383;SDS011;5238;43.508;4.980;2022-12-08T07:10:13;17.13;;;10.48;;
10383;SDS011;5238;43.508;4.980;2022-12-08T07:12:41;16.35;;;10.23;;
10383;SDS011;5238;43.508;4.980;2022-12-08T07:15:28;18.25;;;11.00;;
10383;SDS011;5238;43.508;4.980;2022-12-08T07:18:02;18.02;;;10.30;;
10383;SDS011;5238;43.508;4.980;2022-12-08T07:20:30;13.10;;;8.82;;
10383;SDS011;5238;43.508;4.980;2022-12-08T07:23:04;12.02;;;8.15;;
10383;SDS011;5238;43.508;4.980;2022-12-08T07:25:32;12.88;;;8.05;;
10383;SDS011;5238;43.508;4.980;2022-12-08T07:28:10;9.77;;;6.85;;
10383;SDS011;5238;43.508;4.980;2022-12-08T07:31:02;11.73;;;6.70;;
10383;SDS011;5238;43.508;4.980;2022-12-08T07:33:35;11.77;;;7.35;;
10383;SDS011;5238;43.508;4.980;2022-12-08T07:36:02;14.48;;;8.10;;
10383;SDS011;5238;43.508;4.980;2022-12-08T07:38:35;10.43;;;6.60;;
10383;SDS011;5238;43.508;4.980;2022-12-08T07:41:02;10.75;;;7.00;;
10383;SDS011;5238;43.508;4.980;2022-12-08T07:43:38;11.50;;;7.10;;
10383;SDS011;5238;43.508;4.980;2022-12-08T07:46:06;17.88;;;10.65;;
10383;SDS011;5238;43.508;4.980;2022-12-08T07:48:41;34.80;;;23.17;;
10383;SDS011;5238;43.508;4.980;2022-12-08T07:51:09;19.73;;;12.77;;
10383;SDS011;5238;43.508;4.980;2022-12-08T07:53:38;19.55;;;12.30;;
10383;SDS011;5238;43.508;4.980;2022-12-08T07:56:20;21.40;;;12.70;;
10383;SDS011;5238;43.508;4.980;2022-12-08T07:58:48;23.23;;;12.98;;
10383;SDS011;5238;43.508;4.980;2022-12-08T08:01:17;21.90;;;14.20;;
10383;SDS011;5238;43.508;4.980;2022-12-08T08:03:45;30.10;;;18.83;;
10383;SDS011;5238;43.508;4.980;2022-12-08T08:06:13;32.17;;;19.95;;
10383;SDS011;5238;43.508;4.980;2022-12-08T08:08:40;40.33;;;23.95;;
10383;SDS011;5238;43.508;4.980;2022-12-08T08:11:07;39.05;;;23.33;;
10383;SDS011;5238;43.508;4.980;2022-12-08T08:13:35;27.27;;;16.05;;
10383;SDS011;5238;43.508;4.980;2022-12-08T08:16:04;35.10;;;21.35;;
10383;SDS011;5238;43.508;4.980;2022-12-08T08:18:32;42.35;;;27.25;;
10383;SDS011;5238;43.508;4.980;2022-12-08T08:21:02;39.95;;;26.77;;
10383;SDS011;5238;43.508;4.980;2022-12-08T08:23:30;32.00;;;21.63;;
10383;SDS011;5238;43.508;4.980;2022-12-08T08:26:01;30.75;;;18.08;;
10383;SDS011;5238;43.508;4.980;2022-12-08T08:28:31;31.35;;;18.00;;
10383;SDS011;5238;43.508;4.980;2022-12-08T08:31:00;17.73;;;11.02;;
10383;SDS011;5238;43.508;4.980;2022-12-08T08:33:30;15.52;;;9.88;;
10383;SDS011;5238;43.508;4.980;2022-12-08T08:36:11;14.68;;;10.52;;
10383;SDS011;5238;43.508;4.980;2022-12-08T08:38:43;16.38;;;10.57;;
10383;SDS011;5238;43.508;4.980;2022-12-08T08:41:12;12.45;;;7.45;;
10383;SDS011;5238;43.508;4.980;2022-12-08T08:43:40;9.30;;;6.80;;
10383;SDS011;5238;43.508;4.980;2022-12-08T08:46:15;10.63;;;6.45;;
10383;SDS011;5238;43.508;4.980;2022-12-08T08:48:46;12.57;;;6.15;;
10383;SDS011;5238;43.508;4.980;2022-12-08T08:51:13;10.68;;;5.63;;
10383;SDS011;5238;43.508;4.980;2022-12-08T08:53:54;10.80;;;6.55;;
10383;SDS011;5238;43.508;4.980;2022-12-08T08:56:22;9.82;;;6.15;;
10383;SDS011;5238;43.508;4.980;2022-12-08T08:58:50;10.27;;;6.70;;
10383;SDS011;5238;43.508;4.980;2022-12-08T09:01:20;9.15;;;6.05;;
10383;SDS011;5238;43.508;4.980;2022-12-08T09:03:50;13.70;;;7.25;;
10383;SDS011;5238;43.508;4.980;2022-12-08T09:06:19;12.35;;;8.30;;
10383;SDS011;5238;43.508;4.980;2022-12-08T09:08:48;10.73;;;7.25;;
10383;SDS011;5238;43.508;4.980;2022-12-08T09:11:16;9.98;;;6.53;;
10383;SDS011;5238;43.508;4.980;2022-12-08T09:13:46;15.35;;;6.70;;
10383;SDS011;5238;43.508;4.980;2022-12-08T09:16:14;9.10;;;6.07;;
10383;SDS011;5238;43.508;4.980;2022-12-08T09:18:42;9.40;;;5.93;;
10383;SDS011;5238;43.508;4.980;2022-12-08T09:21:12;6.85;;;5.60;;
10383;SDS011;5238;43.508;4.980;2022-12-08T09:23:46;8.45;;;5.13;;
10383;SDS011;5238;43.508;4.980;2022-12-08T09:26:14;10.00;;;5.60;;
10383;SDS011;5238;43.508;4.980;2022-12-08T09:28:46;10.00;;;4.72;;
10383;SDS011;5238;43.508;4.980;2022-12-08T09:31:16;6.40;;;4.82;;
10383;SDS011;5238;43.508;4.980;2022-12-08T09:33:45;7.18;;;4.38;;
10383;SDS011;5238;43.508;4.980;2022-12-08T09:36:17;7.35;;;5.03;;
10383;SDS011;5238;43.508;4.980;2022-12-08T09:38:59;8.05;;;5.13;;
10383;SDS011;5238;43.508;4.980;2022-12-08T09:41:30;8.32;;;5.10;;
10383;SDS011;5238;43.508;4.980;2022-12-08T09:44:05;7.25;;;5.93;;
10383;SDS011;5238;43.508;4.980;2022-12-08T09:46:43;7.60;;;5.32;;
10383;SDS011;5238;43.508;4.980;2022-12-08T09:49:30;7.68;;;5.63;;
10383;SDS011;5238;43.508;4.980;2022-12-08T09:52:10;10.25;;;5.57;;
10383;SDS011;5238;43.508;4.980;2022-12-08T09:54:50;8.27;;;6.30;;
10383;SDS011;5238;43.508;4.980;2022-12-08T09:57:19;11.23;;;6.30;;
10383;SDS011;5238;43.508;4.980;2022-12-08T09:59:52;8.60;;;5.85;;
10383;SDS011;5238;43.508;4.980;2022-12-08T10:02:24;8.27;;;5.70;;
10383;SDS011;5238;43.508;4.980;2022-12-08T10:04:55;10.40;;;6.88;;
10383;SDS011;5238;43.508;4.980;2022-12-08T10:07:53;10.13;;;7.00;;
10383;SDS011;5238;43.508;4.980;2022-12-08T10:10:37;9.95;;;6.57;;
10383;SDS011;5238;43.508;4.980;2022-12-08T10:13:10;12.48;;;6.40;;
10383;SDS011;5238;43.508;4.980;2022-12-08T10:15:52;9.57;;;6.85;;
10383;SDS011;5238;43.508;4.980;2022-12-08T10:18:32;11.18;;;8.15;;
10383;SDS011;5238;43.508;4.980;2022-12-08T10:21:11;13.23;;;8.15;;
10383;SDS011;5238;43.508;4.980;2022-12-08T10:24:15;16.52;;;9.38;;
10383;SDS011;5238;43.508;4.980;2022-12-08T10:26:48;13.85;;;8.45;;
10383;SDS011;5238;43.508;4.980;2022-12-08T10:29:21;11.75;;;8.18;;
10383;SDS011;5238;43.508;4.980;2022-12-08T10:31:52;16.00;;;8.50;;
10383;SDS011;5238;43.508;4.980;2022-12-08T10:34:23;12.73;;;8.95;;
10383;SDS011;5238;43.508;4.980;2022-12-08T10:37:01;13.00;;;8.80;;
10383;SDS011;5238;43.508;4.980;2022-12-08T10:39:40;12.40;;;8.98;;
10383;SDS011;5238;43.508;4.980;2022-12-08T10:42:24;11.95;;;8.25;;
10383;SDS011;5238;43.508;4.980;2022-12-08T10:45:02;11.88;;;8.32;;
10383;SDS011;5238;43.508;4.980;2022-12-08T10:47:43;10.63;;;7.63;;
10383;SDS011;5238;43.508;4.980;2022-12-08T10:50:30;12.88;;;8.77;;
10383;SDS011;5238;43.508;4.980;2022-12-08T10:53:01;10.15;;;7.93;;
10383;SDS011;5238;43.508;4.980;2022-12-08T10:58:37;12.00;;;7.78;;
10383;SDS011;5238;43.508;4.980;2022-12-08T11:01:10;11.00;;;6.43;;
10383;SDS011;5238;43.508;4.980;2022-12-08T11:03:53;12.57;;;7.43;;
10383;SDS011;5238;43.508;4.980;2022-12-08T11:06:29;10.73;;;8.00;;
10383;SDS011;5238;43.508;4.980;2022-12-08T11:09:01;13.00;;;8.50;;
10383;SDS011;5238;43.508;4.980;2022-12-08T11:11:58;13.85;;;9.65;;
10383;SDS011;5238;43.508;4.980;2022-12-08T11:14:35;13.48;;;7.53;;
10383;SDS011;5238;43.508;4.980;2022-12-08T11:17:22;11.50;;;7.80;;
10383;SDS011;5238;43.508;4.980;2022-12-08T11:19:56;13.50;;;8.68;;
10383;SDS011;5238;43.508;4.980;2022-12-08T11:22:32;14.00;;;9.02;;
10383;SDS011;5238;43.508;4.980;2022-12-08T11:25:10;14.23;;;9.57;;
10383;SDS011;5238;43.508;4.980;2022-12-08T11:27:55;14.02;;;9.20;;
10383;SDS011;5238;43.508;4.980;2022-12-08T11:30:27;12.25;;;8.88;;
10383;SDS011;5238;43.508;4.980;2022-12-08T11:33:02;12.55;;;8.43;;
10383;SDS011;5238;43.508;4.980;2022-12-08T11:35:40;15.07;;;9.23;;
10383;SDS011;5238;43.508;4.980;2022-12-08T11:38:10;13.00;;;9.82;;
10383;SDS011;5238;43.508;4.980;2022-12-08T11:40:41;11.73;;;8.18;;
10383;SDS011;5238;43.508;4.980;2022-12-08T11:43:13;13.55;;;9.10;;
10383;SDS011;5238;43.508;4.980;2022-12-08T11:45:48;12.98;;;8.65;;
10383;SDS011;5238;43.508;4.980;2022-12-08T11:48:24;13.15;;;7.75;;
10383;SDS011;5238;43.508;4.980;2022-12-08T11:51:02;11.63;;;6.95;;
10383;SDS011;5238;43.508;4.980;2022-12-08T11:53:45;15.02;;;8.30;;
10383;SDS011;5238;43.508;4.980;2022-12-08T11:56:19;12.23;;;8.10;;
10383;SDS011;5238;43.508;4.980;2022-12-08T11:58:54;9.98;;;6.68;;
10383;SDS011;5238;43.508;4.980;2022-12-08T12:01:25;11.90;;;6.68;;
10383;SDS011;5238;43.508;4.980;2022-12-08T12:03:58;10.27;;;6.68;;
10383;SDS011;5238;43.508;4.980;2022-12-08T12:10:05;9.68;;;6.93;;
10383;SDS011;5238;43.508;4.980;2022-12-08T12:12:47;12.30;;;8.77;;
10383;SDS011;5238;43.508;4.980;2022-12-08T12:18:36;16.50;;;10.05;;
10383;SDS011;5238;43.508;4.980;2022-12-08T12:21:11;12.77;;;8.85;;
10383;SDS011;5238;43.508;4.980;2022-12-08T12:23:45;15.85;;;8.45;;
10383;SDS011;5238;43.508;4.980;2022-12-08T12:26:30;15.05;;;8.55;;
10383;SDS011;5238;43.508;4.980;2022-12-08T12:29:11;12.50;;;8.13;;
10383;SDS011;5238;43.508;4.980;2022-12-08T12:31:50;11.23;;;7.97;;
10383;SDS011;5238;43.508;4.980;2022-12-08T12:34:27;13.05;;;7.90;;
10383;SDS011;5238;43.508;4.980;2022-12-08T12:37:02;14.55;;;8.85;;
10383;SDS011;5238;43.508;4.980;2022-12-08T12:39:47;12.20;;;8.30;;
10383;SDS011;5238;43.508;4.980;2022-12-08T12:42:34;11.88;;;8.52;;
10383;SDS011;5238;43.508;4.980;2022-12-08T12:45:23;13.80;;;8.52;;
10383;SDS011;5238;43.508;4.980;2022-12-08T12:48:13;12.90;;;8.18;;
10383;SDS011;5238;43.508;4.980;2022-12-08T12:51:04;16.08;;;8.93;;
10383;SDS011;5238;43.508;4.980;2022-12-08T12:54:19;15.82;;;8.77;;
10383;SDS011;5238;43.508;4.980;2022-12-08T12:56:49;13.88;;;7.70;;
10383;SDS011;5238;43.508;4.980;2022-12-08T12:59:21;12.57;;;8.05;;
10383;SDS011;5238;43.508;4.980;2022-12-08T13:02:02;16.27;;;8.25;;
10383;SDS011;5238;43.508;4.980;2022-12-08T13:04:41;12.98;;;8.82;;
10383;SDS011;5238;43.508;4.980;2022-12-08T13:07:27;12.48;;;8.13;;
10383;SDS011;5238;43.508;4.980;2022-12-08T13:09:59;12.23;;;8.00;;
10383;SDS011;5238;43.508;4.980;2022-12-08T13:12:37;12.95;;;8.82;;
10383;SDS011;5238;43.508;4.980;2022-12-08T13:15:15;11.80;;;7.68;;
10383;SDS011;5238;43.508;4.980;2022-12-08T13:17:47;12.32;;;7.95;;
10383;SDS011;5238;43.508;4.980;2022-12-08T13:20:18;12.30;;;7.32;;
10383;SDS011;5238;43.508;4.980;2022-12-08T13:29:10;10.93;;;7.45;;
10383;SDS011;5238;43.508;4.980;2022-12-08T13:31:50;10.68;;;7.03;;
10383;SDS011;5238;43.508;4.980;2022-12-08T13:34:20;11.48;;;6.78;;
10383;SDS011;5238;43.508;4.980;2022-12-08T13:36:58;9.68;;;6.82;;
10383;SDS011;5238;43.508;4.980;2022-12-08T13:39:35;10.38;;;6.35;;
10383;SDS011;5238;43.508;4.980;2022-12-08T13:42:14;8.55;;;6.47;;
10383;SDS011;5238;43.508;4.980;2022-12-08T13:44:52;9.18;;;6.65;;
10383;SDS011;5238;43.508;4.980;2022-12-08T13:47:29;9.85;;;7.05;;
10383;SDS011;5238;43.508;4.980;2022-12-08T13:50:03;10.65;;;6.78;;
10383;SDS011;5238;43.508;4.980;2022-12-08T13:52:47;11.32;;;7.25;;
10383;SDS011;5238;43.508;4.980;2022-12-08T13:55:26;8.70;;;6.07;;
10383;SDS011;5238;43.508;4.980;2022-12-08T13:58:03;10.90;;;6.75;;
10383;SDS011;5238;43.508;4.980;2022-12-08T14:00:33;9.77;;;7.18;;
10383;SDS011;5238;43.508;4.980;2022-12-08T14:03:08;12.90;;;6.75;;
10383;SDS011;5238;43.508;4.980;2022-12-08T14:05:41;9.32;;;6.38;;
10383;SDS011;5238;43.508;4.980;2022-12-08T14:08:16;11.52;;;6.88;;
10383;SDS011;5238;43.508;4.980;2022-12-08T14:10:56;10.38;;;6.13;;
10383;SDS011;5238;43.508;4.980;2022-12-08T14:13:28;8.95;;;6.22;;
10383;SDS011;5238;43.508;4.980;2022-12-08T14:15:58;9.50;;;6.50;;
10383;SDS011;5238;43.508;4.980;2022-12-08T14:18:29;10.07;;;6.32;;
10383;SDS011;5238;43.508;4.980;2022-12-08T14:21:10;7.70;;;6.28;;
10383;SDS011;5238;43.508;4.980;2022-12-08T14:23:45;9.93;;;6.05;;
10383;SDS011;5238;43.508;4.980;2022-12-08T14:26:20;7.68;;;6.03;;
10383;SDS011;5238;43.508;4.980;2022-12-08T14:29:01;9.55;;;6.38;;
10383;SDS011;5238;43.508;4.980;2022-12-08T14:31:45;9.65;;;5.85;;
10383;SDS011;5238;43.508;4.980;2022-12-08T14:34:16;13.15;;;6.35;;
10383;SDS011;5238;43.508;4.980;2022-12-08T14:36:57;8.43;;;5.55;;
10383;SDS011;5238;43.508;4.980;2022-12-08T14:39:29;8.55;;;5.90;;
10383;SDS011;5238;43.508;4.980;2022-12-08T14:42:00;8.10;;;5.72;;
10383;SDS011;5238;43.508;4.980;2022-12-08T14:44:37;9.65;;;5.20;;
10383;SDS011;5238;43.508;4.980;2022-12-08T14:47:16;10.05;;;5.75;;
10383;SDS011;5238;43.508;4.980;2022-12-08T14:49:45;11.02;;;7.07;;
10383;SDS011;5238;43.508;4.980;2022-12-08T14:52:15;10.95;;;6.25;;
10383;SDS011;5238;43.508;4.980;2022-12-08T14:54:47;8.95;;;6.50;;
10383;SDS011;5238;43.508;4.980;2022-12-08T14:57:18;9.80;;;6.35;;
10383;SDS011;5238;43.508;4.980;2022-12-08T14:59:45;11.13;;;6.90;;
10383;SDS011;5238;43.508;4.980;2022-12-08T15:02:22;8.48;;;6.05;;
10383;SDS011;5238;43.508;4.980;2022-12-08T15:04:56;8.40;;;5.30;;
10383;SDS011;5238;43.508;4.980;2022-12-08T15:07:27;12.63;;;5.80;;
10383;SDS011;5238;43.508;4.980;2022-12-08T15:10:18;10.93;;;6.05;;
10383;SDS011;5238;43.508;4.980;2022-12-08T15:12:58;13.05;;;6.88;;
10383;SDS011;5238;43.508;4.980;2022-12-08T15:15:30;13.63;;;7.18;;
10383;SDS011;5238;43.508;4.980;2022-12-08T15:18:13;11.38;;;7.95;;
10383;SDS011;5238;43.508;4.980;2022-12-08T15:20:43;12.10;;;7.30;;
10383;SDS011;5238;43.508;4.980;2022-12-08T15:23:23;9.73;;;6.38;;
10383;SDS011;5238;43.508;4.980;2022-12-08T15:25:57;10.77;;;6.20;;
10383;SDS011;5238;43.508;4.980;2022-12-08T15:28:39;9.40;;;6.30;;
10383;SDS011;5238;43.508;4.980;2022-12-08T15:31:07;9.68;;;6.47;;
10383;SDS011;5238;43.508;4.980;2022-12-08T15:33:35;10.18;;;6.32;;
10383;SDS011;5238;43.508;4.980;2022-12-08T15:36:03;10.15;;;6.57;;
10383;SDS011;5238;43.508;4.980;2022-12-08T15:38:34;8.73;;;6.28;;
10383;SDS011;5238;43.508;4.980;2022-12-08T15:41:03;9.15;;;6.15;;
10383;SDS011;5238;43.508;4.980;2022-12-08T15:43:35;10.13;;;6.72;;
10383;SDS011;5238;43.508;4.980;2022-12-08T15:46:13;12.10;;;6.90;;
10383;SDS011;5238;43.508;4.980;2022-12-08T15:48:48;10.57;;;7.45;;
10383;SDS011;5238;43.508;4.980;2022-12-08T15:51:19;10.95;;;7.53;;
10383;SDS011;5238;43.508;4.980;2022-12-08T15:53:47;12.73;;;8.75;;
10383;SDS011;5238;43.508;4.980;2022-12-08T15:56:18;13.43;;;8.75;;
10383;SDS011;5238;43.508;4.980;2022-12-08T15:58:49;12.65;;;9.25;;
10383;SDS011;5238;43.508;4.980;2022-12-08T16:01:22;13.98;;;9.70;;
10383;SDS011;5238;43.508;4.980;2022-12-08T16:03:50;17.42;;;9.77;;